sensor_id;sensor_type;location;lat;lon;timestamp;pressure;altitude;pressure_sealevel;temperature;humidity
64967;BME280;51710;38.732;-121.358;2023-06-19T00:01:24;100210.31;;;29.96;35.33
64967;BME280;51710;38.732;-121.358;2023-06-19T00:03:53;100199.94;;;29.93;35.38
64967;BME280;51710;38.732;-121.358;2023-06-19T00:06:19;100201.09;;;29.87;35.43
64967;BME280;51710;38.732;-121.358;2023-06-19T00:08:46;100206.59;;;29.87;35.73
64967;BME280;51710;38.732;-121.358;2023-06-19T00:11:12;100199.41;;;29.91;35.40
64967;BME280;51710;38.732;-121.358;2023-06-19T00:13:38;100197.50;;;29.92;35.07
64967;BME280;51710;38.732;-121.358;2023-06-19T00:16:05;100212.19;;;29.82;35.34
64967;BME280;51710;38.732;-121.358;2023-06-19T00:18:31;100205.94;;;29.76;35.23
64967;BME280;51710;38.732;-121.358;2023-06-19T00:21:06;100196.44;;;29.69;35.95
64967;BME280;51710;38.732;-121.358;2023-06-19T00:23:33;100199.47;;;29.67;35.97
64967;BME280;51710;38.732;-121.358;2023-06-19T00:26:00;100198.88;;;29.70;35.65
64967;BME280;51710;38.732;-121.358;2023-06-19T00:28:30;100193.75;;;29.64;35.83
64967;BME280;51710;38.732;-121.358;2023-06-19T00:30:56;100188.06;;;29.55;35.46
64967;BME280;51710;38.732;-121.358;2023-06-19T00:33:22;100194.44;;;29.51;35.58
64967;BME280;51710;38.732;-121.358;2023-06-19T00:35:52;100188.50;;;29.44;35.62
64967;BME280;51710;38.732;-121.358;2023-06-19T00:38:20;100190.19;;;29.40;35.84
64967;BME280;51710;38.732;-121.358;2023-06-19T00:40:46;100193.97;;;29.25;35.55
64967;BME280;51710;38.732;-121.358;2023-06-19T00:43:12;100183.63;;;29.17;35.64
64967;BME280;51710;38.732;-121.358;2023-06-19T00:45:39;100174.63;;;29.12;35.83
64967;BME280;51710;38.732;-121.358;2023-06-19T00:48:05;100178.50;;;29.11;36.34
64967;BME280;51710;38.732;-121.358;2023-06-19T00:50:31;100187.28;;;29.08;35.75
64967;BME280;51710;38.732;-121.358;2023-06-19T00:52:59;100181.38;;;28.96;36.00
64967;BME280;51710;38.732;-121.358;2023-06-19T00:55:29;100190.81;;;28.85;36.21
64967;BME280;51710;38.732;-121.358;2023-06-19T00:57:59;100186.53;;;28.73;36.06
64967;BME280;51710;38.732;-121.358;2023-06-19T01:00:25;100190.44;;;28.67;36.29
64967;BME280;51710;38.732;-121.358;2023-06-19T01:02:51;100185.56;;;28.64;36.32
64967;BME280;51710;38.732;-121.358;2023-06-19T01:05:18;100188.84;;;28.61;36.00
64967;BME280;51710;38.732;-121.358;2023-06-19T01:08:03;100185.63;;;28.54;36.36
64967;BME280;51710;38.732;-121.358;2023-06-19T01:10:36;100178.00;;;28.46;36.05
64967;BME280;51710;38.732;-121.358;2023-06-19T01:15:41;100173.22;;;28.28;36.88
64967;BME280;51710;38.732;-121.358;2023-06-19T01:18:08;100182.28;;;28.29;36.78
64967;BME280;51710;38.732;-121.358;2023-06-19T01:20:37;100182.03;;;28.25;37.19
64967;BME280;51710;38.732;-121.358;2023-06-19T01:23:11;100182.31;;;28.24;36.86
64967;BME280;51710;38.732;-121.358;2023-06-19T01:25:38;100186.75;;;28.15;36.84
64967;BME280;51710;38.732;-121.358;2023-06-19T01:28:07;100181.63;;;28.08;36.80
64967;BME280;51710;38.732;-121.358;2023-06-19T01:30:36;100180.28;;;28.01;36.71
64967;BME280;51710;38.732;-121.358;2023-06-19T01:35:35;100176.50;;;27.92;36.94
64967;BME280;51710;38.732;-121.358;2023-06-19T01:38:02;100178.97;;;27.88;36.92
64967;BME280;51710;38.732;-121.358;2023-06-19T01:40:30;100176.31;;;27.78;36.70
64967;BME280;51710;38.732;-121.358;2023-06-19T01:42:59;100181.31;;;27.66;37.19
64967;BME280;51710;38.732;-121.358;2023-06-19T01:45:30;100185.75;;;27.52;36.93
64967;BME280;51710;38.732;-121.358;2023-06-19T01:47:57;100179.56;;;27.31;36.67
64967;BME280;51710;38.732;-121.358;2023-06-19T01:50:24;100186.44;;;27.14;36.89
64967;BME280;51710;38.732;-121.358;2023-06-19T01:52:51;100187.03;;;27.01;36.90
64967;BME280;51710;38.732;-121.358;2023-06-19T01:55:18;100185.97;;;26.97;37.25
64967;BME280;51710;38.732;-121.358;2023-06-19T01:57:44;100174.19;;;26.96;37.12
64967;BME280;51710;38.732;-121.358;2023-06-19T02:00:12;100179.97;;;26.90;37.13
64967;BME280;51710;38.732;-121.358;2023-06-19T02:02:38;100192.56;;;26.81;37.33
64967;BME280;51710;38.732;-121.358;2023-06-19T02:05:05;100190.41;;;26.73;37.26
64967;BME280;51710;38.732;-121.358;2023-06-19T02:07:31;100189.81;;;26.65;37.08
64967;BME280;51710;38.732;-121.358;2023-06-19T02:09:57;100186.28;;;26.60;37.20
64967;BME280;51710;38.732;-121.358;2023-06-19T02:12:24;100185.72;;;26.53;36.93
64967;BME280;51710;38.732;-121.358;2023-06-19T02:14:50;100188.19;;;26.44;37.45
64967;BME280;51710;38.732;-121.358;2023-06-19T02:17:16;100200.47;;;26.37;37.29
64967;BME280;51710;38.732;-121.358;2023-06-19T02:19:42;100194.19;;;26.21;37.39
64967;BME280;51710;38.732;-121.358;2023-06-19T02:22:09;100198.00;;;26.05;37.77
64967;BME280;51710;38.732;-121.358;2023-06-19T02:24:35;100200.97;;;25.94;37.78
64967;BME280;51710;38.732;-121.358;2023-06-19T02:27:02;100194.66;;;25.83;37.44
64967;BME280;51710;38.732;-121.358;2023-06-19T02:29:29;100199.00;;;25.64;37.35
64967;BME280;51710;38.732;-121.358;2023-06-19T02:31:55;100186.94;;;25.50;37.66
64967;BME280;51710;38.732;-121.358;2023-06-19T02:34:22;100192.38;;;25.40;38.03
64967;BME280;51710;38.732;-121.358;2023-06-19T02:36:50;100195.56;;;25.32;37.40
64967;BME280;51710;38.732;-121.358;2023-06-19T02:39:16;100198.78;;;25.19;37.76
64967;BME280;51710;38.732;-121.358;2023-06-19T02:41:43;100207.97;;;25.03;38.07
64967;BME280;51710;38.732;-121.358;2023-06-19T02:44:12;100211.41;;;24.88;37.76
64967;BME280;51710;38.732;-121.358;2023-06-19T02:46:39;100205.59;;;24.75;37.82
64967;BME280;51710;38.732;-121.358;2023-06-19T02:49:06;100204.41;;;24.66;38.04
64967;BME280;51710;38.732;-121.358;2023-06-19T02:51:32;100211.50;;;24.62;37.86
64967;BME280;51710;38.732;-121.358;2023-06-19T02:53:58;100210.06;;;24.54;38.28
64967;BME280;51710;38.732;-121.358;2023-06-19T02:56:26;100207.56;;;24.47;38.28
64967;BME280;51710;38.732;-121.358;2023-06-19T02:58:53;100203.63;;;24.33;38.10
64967;BME280;51710;38.732;-121.358;2023-06-19T03:01:19;100203.00;;;24.21;38.26
64967;BME280;51710;38.732;-121.358;2023-06-19T03:03:45;100203.72;;;24.12;38.44
64967;BME280;51710;38.732;-121.358;2023-06-19T03:06:13;100215.06;;;24.04;38.36
64967;BME280;51710;38.732;-121.358;2023-06-19T03:08:39;100223.91;;;23.94;38.58
64967;BME280;51710;38.732;-121.358;2023-06-19T03:11:06;100220.56;;;23.87;38.51
64967;BME280;51710;38.732;-121.358;2023-06-19T03:13:51;100213.13;;;23.78;38.41
64967;BME280;51710;38.732;-121.358;2023-06-19T03:16:19;100216.56;;;23.68;38.22
64967;BME280;51710;38.732;-121.358;2023-06-19T03:18:46;100229.41;;;23.51;38.28
64967;BME280;51710;38.732;-121.358;2023-06-19T03:21:13;100223.81;;;23.36;38.00
64967;BME280;51710;38.732;-121.358;2023-06-19T03:23:40;100220.84;;;23.21;38.19
64967;BME280;51710;38.732;-121.358;2023-06-19T03:26:09;100227.44;;;23.08;38.18
64967;BME280;51710;38.732;-121.358;2023-06-19T03:28:38;100220.50;;;22.96;38.23
64967;BME280;51710;38.732;-121.358;2023-06-19T03:31:05;100229.63;;;22.90;38.28
64967;BME280;51710;38.732;-121.358;2023-06-19T03:33:31;100236.09;;;22.84;38.59
64967;BME280;51710;38.732;-121.358;2023-06-19T03:35:57;100227.03;;;22.78;38.93
64967;BME280;51710;38.732;-121.358;2023-06-19T03:38:23;100232.59;;;22.72;38.32
64967;BME280;51710;38.732;-121.358;2023-06-19T03:40:49;100225.41;;;22.61;38.26
64967;BME280;51710;38.732;-121.358;2023-06-19T03:43:16;100228.97;;;22.50;38.55
64967;BME280;51710;38.732;-121.358;2023-06-19T03:45:42;100239.16;;;22.43;38.41
64967;BME280;51710;38.732;-121.358;2023-06-19T03:48:08;100234.75;;;22.37;38.47
64967;BME280;51710;38.732;-121.358;2023-06-19T03:50:35;100234.06;;;22.29;38.80
64967;BME280;51710;38.732;-121.358;2023-06-19T03:53:01;100234.22;;;22.23;38.91
64967;BME280;51710;38.732;-121.358;2023-06-19T03:55:27;100227.56;;;22.14;38.57
64967;BME280;51710;38.732;-121.358;2023-06-19T03:57:53;100229.84;;;22.05;38.89
64967;BME280;51710;38.732;-121.358;2023-06-19T04:00:20;100238.38;;;21.97;39.07
64967;BME280;51710;38.732;-121.358;2023-06-19T04:02:46;100246.91;;;21.89;39.07
64967;BME280;51710;38.732;-121.358;2023-06-19T04:05:13;100235.38;;;21.82;38.99
64967;BME280;51710;38.732;-121.358;2023-06-19T04:07:41;100241.13;;;21.74;39.25
64967;BME280;51710;38.732;-121.358;2023-06-19T04:10:08;100242.63;;;21.65;39.31
64967;BME280;51710;38.732;-121.358;2023-06-19T04:12:34;100258.19;;;21.58;39.18
64967;BME280;51710;38.732;-121.358;2023-06-19T04:15:00;100260.44;;;21.50;39.41
64967;BME280;51710;38.732;-121.358;2023-06-19T04:17:27;100270.38;;;21.44;39.34
64967;BME280;51710;38.732;-121.358;2023-06-19T04:19:53;100261.78;;;21.36;39.52
64967;BME280;51710;38.732;-121.358;2023-06-19T04:22:19;100266.59;;;21.34;39.51
64967;BME280;51710;38.732;-121.358;2023-06-19T04:24:45;100266.72;;;21.27;39.47
64967;BME280;51710;38.732;-121.358;2023-06-19T04:27:12;100271.44;;;21.20;39.59
64967;BME280;51710;38.732;-121.358;2023-06-19T04:29:38;100272.03;;;21.10;39.60
64967;BME280;51710;38.732;-121.358;2023-06-19T04:32:04;100279.47;;;21.03;39.99
64967;BME280;51710;38.732;-121.358;2023-06-19T04:34:41;100280.25;;;20.92;40.22
64967;BME280;51710;38.732;-121.358;2023-06-19T04:37:12;100291.44;;;20.84;39.92
64967;BME280;51710;38.732;-121.358;2023-06-19T04:39:38;100283.31;;;20.73;39.95
64967;BME280;51710;38.732;-121.358;2023-06-19T04:42:04;100285.75;;;20.63;40.18
64967;BME280;51710;38.732;-121.358;2023-06-19T04:44:31;100282.31;;;20.56;40.57
64967;BME280;51710;38.732;-121.358;2023-06-19T04:47:00;100292.66;;;20.47;40.38
64967;BME280;51710;38.732;-121.358;2023-06-19T04:49:29;100292.19;;;20.39;40.54
64967;BME280;51710;38.732;-121.358;2023-06-19T04:51:58;100297.47;;;20.34;40.83
64967;BME280;51710;38.732;-121.358;2023-06-19T04:54:27;100297.94;;;20.31;40.75
64967;BME280;51710;38.732;-121.358;2023-06-19T04:56:53;100312.13;;;20.26;40.66
64967;BME280;51710;38.732;-121.358;2023-06-19T04:59:20;100302.47;;;20.19;41.07
64967;BME280;51710;38.732;-121.358;2023-06-19T05:01:46;100303.94;;;20.14;41.36
64967;BME280;51710;38.732;-121.358;2023-06-19T05:04:12;100300.28;;;20.09;41.32
64967;BME280;51710;38.732;-121.358;2023-06-19T05:06:39;100316.13;;;20.05;41.22
64967;BME280;51710;38.732;-121.358;2023-06-19T05:09:05;100314.13;;;20.01;41.53
64967;BME280;51710;38.732;-121.358;2023-06-19T05:11:32;100319.16;;;19.97;41.41
64967;BME280;51710;38.732;-121.358;2023-06-19T05:13:58;100313.84;;;19.91;41.18
64967;BME280;51710;38.732;-121.358;2023-06-19T05:16:24;100330.13;;;19.84;41.33
64967;BME280;51710;38.732;-121.358;2023-06-19T05:18:51;100326.25;;;19.80;41.37
64967;BME280;51710;38.732;-121.358;2023-06-19T05:21:17;100329.00;;;19.74;41.21
64967;BME280;51710;38.732;-121.358;2023-06-19T05:23:43;100321.59;;;19.69;41.30
64967;BME280;51710;38.732;-121.358;2023-06-19T05:26:09;100333.00;;;19.71;41.23
64967;BME280;51710;38.732;-121.358;2023-06-19T05:28:36;100330.69;;;19.75;41.53
64967;BME280;51710;38.732;-121.358;2023-06-19T05:31:02;100326.09;;;19.75;41.42
64967;BME280;51710;38.732;-121.358;2023-06-19T05:33:30;100331.94;;;19.72;41.17
64967;BME280;51710;38.732;-121.358;2023-06-19T05:35:56;100336.97;;;19.69;41.33
64967;BME280;51710;38.732;-121.358;2023-06-19T05:38:22;100336.13;;;19.68;40.78
64967;BME280;51710;38.732;-121.358;2023-06-19T05:40:51;100330.41;;;19.65;40.88
64967;BME280;51710;38.732;-121.358;2023-06-19T05:43:18;100342.91;;;19.59;40.93
64967;BME280;51710;38.732;-121.358;2023-06-19T05:45:44;100335.25;;;19.56;40.79
64967;BME280;51710;38.732;-121.358;2023-06-19T05:48:10;100337.16;;;19.56;40.93
64967;BME280;51710;38.732;-121.358;2023-06-19T05:50:37;100336.16;;;19.50;40.78
64967;BME280;51710;38.732;-121.358;2023-06-19T05:53:03;100342.03;;;19.47;40.83
64967;BME280;51710;38.732;-121.358;2023-06-19T05:55:29;100339.13;;;19.42;40.71
64967;BME280;51710;38.732;-121.358;2023-06-19T05:57:55;100336.06;;;19.39;40.75
64967;BME280;51710;38.732;-121.358;2023-06-19T06:00:22;100341.91;;;19.36;40.87
64967;BME280;51710;38.732;-121.358;2023-06-19T06:02:48;100343.22;;;19.33;41.03
64967;BME280;51710;38.732;-121.358;2023-06-19T06:05:17;100347.34;;;19.29;41.10
64967;BME280;51710;38.732;-121.358;2023-06-19T06:07:46;100344.50;;;19.24;41.17
64967;BME280;51710;38.732;-121.358;2023-06-19T06:10:12;100349.91;;;19.24;41.45
64967;BME280;51710;38.732;-121.358;2023-06-19T06:12:39;100346.16;;;19.25;41.36
64967;BME280;51710;38.732;-121.358;2023-06-19T06:15:06;100349.91;;;19.24;41.37
64967;BME280;51710;38.732;-121.358;2023-06-19T06:17:32;100359.34;;;19.15;41.58
64967;BME280;51710;38.732;-121.358;2023-06-19T06:19:58;100364.13;;;19.13;41.68
64967;BME280;51710;38.732;-121.358;2023-06-19T06:22:25;100368.31;;;19.09;41.87
64967;BME280;51710;38.732;-121.358;2023-06-19T06:24:51;100372.91;;;19.08;42.00
64967;BME280;51710;38.732;-121.358;2023-06-19T06:27:18;100375.03;;;19.00;42.12
64967;BME280;51710;38.732;-121.358;2023-06-19T06:29:45;100373.22;;;18.94;42.30
64967;BME280;51710;38.732;-121.358;2023-06-19T06:32:11;100368.88;;;18.93;42.45
64967;BME280;51710;38.732;-121.358;2023-06-19T06:34:37;100374.50;;;18.91;42.41
64967;BME280;51710;38.732;-121.358;2023-06-19T06:37:04;100379.91;;;18.91;42.49
64967;BME280;51710;38.732;-121.358;2023-06-19T06:39:32;100377.38;;;18.90;42.39
64967;BME280;51710;38.732;-121.358;2023-06-19T06:41:59;100377.00;;;18.86;42.63
64967;BME280;51710;38.732;-121.358;2023-06-19T06:44:26;100374.97;;;18.82;42.63
64967;BME280;51710;38.732;-121.358;2023-06-19T06:46:52;100381.44;;;18.81;42.73
64967;BME280;51710;38.732;-121.358;2023-06-19T06:49:18;100377.50;;;18.77;42.96
64967;BME280;51710;38.732;-121.358;2023-06-19T06:51:45;100383.19;;;18.69;42.92
64967;BME280;51710;38.732;-121.358;2023-06-19T06:54:12;100391.06;;;18.64;43.12
64967;BME280;51710;38.732;-121.358;2023-06-19T06:56:38;100388.59;;;18.62;43.37
64967;BME280;51710;38.732;-121.358;2023-06-19T06:59:04;100378.25;;;18.59;43.21
64967;BME280;51710;38.732;-121.358;2023-06-19T07:01:31;100390.28;;;18.57;43.37
64967;BME280;51710;38.732;-121.358;2023-06-19T07:03:57;100383.69;;;18.53;43.56
64967;BME280;51710;38.732;-121.358;2023-06-19T07:06:23;100380.16;;;18.52;43.53
64967;BME280;51710;38.732;-121.358;2023-06-19T07:08:49;100377.25;;;18.54;43.59
64967;BME280;51710;38.732;-121.358;2023-06-19T07:11:15;100377.91;;;18.49;43.67
64967;BME280;51710;38.732;-121.358;2023-06-19T07:13:42;100380.22;;;18.46;43.77
64967;BME280;51710;38.732;-121.358;2023-06-19T07:16:08;100381.03;;;18.40;44.28
64967;BME280;51710;38.732;-121.358;2023-06-19T07:18:34;100390.78;;;18.34;44.32
64967;BME280;51710;38.732;-121.358;2023-06-19T07:21:06;100390.22;;;18.26;44.66
64967;BME280;51710;38.732;-121.358;2023-06-19T07:23:35;100392.75;;;18.21;44.83
64967;BME280;51710;38.732;-121.358;2023-06-19T07:26:01;100394.81;;;18.19;44.74
64967;BME280;51710;38.732;-121.358;2023-06-19T07:28:27;100394.63;;;18.14;45.15
64967;BME280;51710;38.732;-121.358;2023-06-19T07:30:54;100392.16;;;18.12;45.04
64967;BME280;51710;38.732;-121.358;2023-06-19T07:33:20;100394.25;;;18.10;45.14
64967;BME280;51710;38.732;-121.358;2023-06-19T07:35:46;100396.75;;;18.05;45.13
64967;BME280;51710;38.732;-121.358;2023-06-19T07:38:12;100392.00;;;18.01;45.29
64967;BME280;51710;38.732;-121.358;2023-06-19T07:40:39;100398.47;;;17.93;45.23
64967;BME280;51710;38.732;-121.358;2023-06-19T07:43:05;100389.34;;;17.87;45.39
64967;BME280;51710;38.732;-121.358;2023-06-19T07:45:31;100387.72;;;17.86;45.67
64967;BME280;51710;38.732;-121.358;2023-06-19T07:47:57;100385.00;;;17.86;45.69
64967;BME280;51710;38.732;-121.358;2023-06-19T07:50:24;100378.81;;;17.79;45.77
64967;BME280;51710;38.732;-121.358;2023-06-19T07:52:50;100377.81;;;17.67;46.07
64967;BME280;51710;38.732;-121.358;2023-06-19T07:55:16;100374.09;;;17.62;46.39
64967;BME280;51710;38.732;-121.358;2023-06-19T07:57:42;100371.63;;;17.60;46.26
64967;BME280;51710;38.732;-121.358;2023-06-19T08:00:09;100382.19;;;17.62;46.42
64967;BME280;51710;38.732;-121.358;2023-06-19T08:02:41;100383.41;;;17.59;46.54
64967;BME280;51710;38.732;-121.358;2023-06-19T08:05:08;100386.97;;;17.53;46.60
64967;BME280;51710;38.732;-121.358;2023-06-19T08:07:35;100382.44;;;17.54;46.72
64967;BME280;51710;38.732;-121.358;2023-06-19T08:10:02;100386.53;;;17.56;46.83
64967;BME280;51710;38.732;-121.358;2023-06-19T08:12:30;100382.00;;;17.50;46.73
64967;BME280;51710;38.732;-121.358;2023-06-19T08:14:56;100387.78;;;17.47;46.88
64967;BME280;51710;38.732;-121.358;2023-06-19T08:17:22;100393.16;;;17.41;47.22
64967;BME280;51710;38.732;-121.358;2023-06-19T08:19:49;100391.50;;;17.33;47.35
64967;BME280;51710;38.732;-121.358;2023-06-19T08:22:16;100395.69;;;17.29;47.34
64967;BME280;51710;38.732;-121.358;2023-06-19T08:24:42;100399.81;;;17.25;47.23
64967;BME280;51710;38.732;-121.358;2023-06-19T08:27:08;100400.25;;;17.22;47.42
64967;BME280;51710;38.732;-121.358;2023-06-19T08:29:35;100406.63;;;17.21;47.56
64967;BME280;51710;38.732;-121.358;2023-06-19T08:32:01;100407.69;;;17.20;47.74
64967;BME280;51710;38.732;-121.358;2023-06-19T08:34:28;100402.31;;;17.14;47.82
64967;BME280;51710;38.732;-121.358;2023-06-19T08:36:54;100409.75;;;17.05;48.34
64967;BME280;51710;38.732;-121.358;2023-06-19T08:39:20;100403.13;;;17.01;48.22
64967;BME280;51710;38.732;-121.358;2023-06-19T08:41:48;100399.81;;;16.99;48.18
64967;BME280;51710;38.732;-121.358;2023-06-19T08:44:14;100405.00;;;16.94;48.37
64967;BME280;51710;38.732;-121.358;2023-06-19T08:46:40;100408.09;;;16.91;48.76
64967;BME280;51710;38.732;-121.358;2023-06-19T08:49:08;100423.81;;;16.88;48.85
64967;BME280;51710;38.732;-121.358;2023-06-19T08:51:37;100418.63;;;16.79;49.14
64967;BME280;51710;38.732;-121.358;2023-06-19T08:54:05;100409.50;;;16.74;49.27
64967;BME280;51710;38.732;-121.358;2023-06-19T08:56:32;100420.06;;;16.69;49.21
64967;BME280;51710;38.732;-121.358;2023-06-19T08:59:16;100422.13;;;16.67;49.57
64967;BME280;51710;38.732;-121.358;2023-06-19T09:01:51;100424.19;;;16.65;49.48
64967;BME280;51710;38.732;-121.358;2023-06-19T09:04:19;100418.59;;;16.60;49.74
64967;BME280;51710;38.732;-121.358;2023-06-19T09:06:51;100425.81;;;16.53;49.96
64967;BME280;51710;38.732;-121.358;2023-06-19T09:09:22;100419.19;;;16.49;49.91
64967;BME280;51710;38.732;-121.358;2023-06-19T09:12:02;100422.09;;;16.47;49.92
64967;BME280;51710;38.732;-121.358;2023-06-19T09:14:40;100418.94;;;16.44;50.22
64967;BME280;51710;38.732;-121.358;2023-06-19T09:17:20;100421.25;;;16.47;50.13
64967;BME280;51710;38.732;-121.358;2023-06-19T09:19:51;100413.19;;;16.47;50.52
64967;BME280;51710;38.732;-121.358;2023-06-19T09:22:20;100409.00;;;16.44;50.69
64967;BME280;51710;38.732;-121.358;2023-06-19T09:24:47;100410.03;;;16.37;51.01
64967;BME280;51710;38.732;-121.358;2023-06-19T09:27:15;100413.94;;;16.28;50.86
64967;BME280;51710;38.732;-121.358;2023-06-19T09:29:48;100412.44;;;16.19;50.71
64967;BME280;51710;38.732;-121.358;2023-06-19T09:34:45;100431.22;;;16.12;51.18
64967;BME280;51710;38.732;-121.358;2023-06-19T09:37:12;100427.28;;;16.08;51.24
64967;BME280;51710;38.732;-121.358;2023-06-19T09:39:39;100441.75;;;16.07;51.33
64967;BME280;51710;38.732;-121.358;2023-06-19T09:42:07;100442.75;;;16.06;51.64
64967;BME280;51710;38.732;-121.358;2023-06-19T09:44:40;100444.81;;;16.04;51.61
64967;BME280;51710;38.732;-121.358;2023-06-19T09:47:31;100447.50;;;16.04;51.78
64967;BME280;51710;38.732;-121.358;2023-06-19T09:49:59;100458.66;;;16.08;51.77
64967;BME280;51710;38.732;-121.358;2023-06-19T09:52:28;100459.91;;;16.05;51.75
64967;BME280;51710;38.732;-121.358;2023-06-19T09:54:55;100460.91;;;15.98;51.76
64967;BME280;51710;38.732;-121.358;2023-06-19T09:57:24;100460.25;;;15.96;52.03
64967;BME280;51710;38.732;-121.358;2023-06-19T09:59:54;100456.34;;;15.92;52.00
64967;BME280;51710;38.732;-121.358;2023-06-19T10:02:26;100459.81;;;15.86;51.89
64967;BME280;51710;38.732;-121.358;2023-06-19T10:04:55;100460.56;;;15.79;52.06
64967;BME280;51710;38.732;-121.358;2023-06-19T10:07:33;100459.34;;;15.75;52.25
64967;BME280;51710;38.732;-121.358;2023-06-19T10:10:03;100454.38;;;15.72;52.60
64967;BME280;51710;38.732;-121.358;2023-06-19T10:12:43;100463.84;;;15.68;52.68
64967;BME280;51710;38.732;-121.358;2023-06-19T10:15:21;100455.34;;;15.65;52.88
64967;BME280;51710;38.732;-121.358;2023-06-19T10:18:04;100472.00;;;15.60;52.72
64967;BME280;51710;38.732;-121.358;2023-06-19T10:23:15;100478.66;;;15.64;53.10
64967;BME280;51710;38.732;-121.358;2023-06-19T10:25:46;100477.81;;;15.64;53.20
64967;BME280;51710;38.732;-121.358;2023-06-19T10:30:56;100478.03;;;15.62;53.29
64967;BME280;51710;38.732;-121.358;2023-06-19T10:33:27;100474.91;;;15.59;53.37
64967;BME280;51710;38.732;-121.358;2023-06-19T10:35:54;100481.09;;;15.59;53.46
64967;BME280;51710;38.732;-121.358;2023-06-19T10:38:21;100488.72;;;15.56;53.65
64967;BME280;51710;38.732;-121.358;2023-06-19T10:40:47;100491.38;;;15.49;53.45
64967;BME280;51710;38.732;-121.358;2023-06-19T10:43:23;100486.34;;;15.46;53.70
64967;BME280;51710;38.732;-121.358;2023-06-19T10:45:53;100494.25;;;15.48;53.55
64967;BME280;51710;38.732;-121.358;2023-06-19T10:48:22;100495.25;;;15.47;53.80
64967;BME280;51710;38.732;-121.358;2023-06-19T10:50:49;100490.91;;;15.46;53.70
64967;BME280;51710;38.732;-121.358;2023-06-19T10:53:32;100498.91;;;15.39;53.84
64967;BME280;51710;38.732;-121.358;2023-06-19T10:56:01;100497.22;;;15.38;54.11
64967;BME280;51710;38.732;-121.358;2023-06-19T10:58:28;100501.13;;;15.36;54.05
64967;BME280;51710;38.732;-121.358;2023-06-19T11:00:55;100499.84;;;15.32;54.29
64967;BME280;51710;38.732;-121.358;2023-06-19T11:03:22;100506.38;;;15.23;54.33
64967;BME280;51710;38.732;-121.358;2023-06-19T11:05:49;100503.25;;;15.19;54.74
64967;BME280;51710;38.732;-121.358;2023-06-19T11:08:20;100504.63;;;15.15;54.89
64967;BME280;51710;38.732;-121.358;2023-06-19T11:10:47;100505.66;;;15.14;55.04
64967;BME280;51710;38.732;-121.358;2023-06-19T11:13:15;100501.69;;;15.10;55.07
64967;BME280;51710;38.732;-121.358;2023-06-19T11:15:42;100506.41;;;15.08;54.96
64967;BME280;51710;38.732;-121.358;2023-06-19T11:18:08;100505.16;;;15.04;55.48
64967;BME280;51710;38.732;-121.358;2023-06-19T11:21:04;100511.53;;;15.03;55.46
64967;BME280;51710;38.732;-121.358;2023-06-19T11:23:30;100511.97;;;15.07;55.45
64967;BME280;51710;38.732;-121.358;2023-06-19T11:26:03;100523.09;;;15.04;55.57
64967;BME280;51710;38.732;-121.358;2023-06-19T11:28:30;100530.56;;;15.08;55.65
64967;BME280;51710;38.732;-121.358;2023-06-19T11:31:02;100531.78;;;15.06;55.52
64967;BME280;51710;38.732;-121.358;2023-06-19T11:33:29;100526.97;;;15.01;55.85
64967;BME280;51710;38.732;-121.358;2023-06-19T11:36:00;100537.84;;;14.93;56.13
64967;BME280;51710;38.732;-121.358;2023-06-19T11:38:27;100547.06;;;14.91;56.45
64967;BME280;51710;38.732;-121.358;2023-06-19T11:40:57;100533.50;;;14.92;56.54
64967;BME280;51710;38.732;-121.358;2023-06-19T11:43:27;100539.03;;;14.91;56.44
64967;BME280;51710;38.732;-121.358;2023-06-19T11:45:53;100549.75;;;14.91;56.54
64967;BME280;51710;38.732;-121.358;2023-06-19T11:48:26;100551.91;;;14.95;56.26
64967;BME280;51710;38.732;-121.358;2023-06-19T11:50:53;100563.06;;;14.99;56.37
64967;BME280;51710;38.732;-121.358;2023-06-19T11:53:21;100556.88;;;14.98;56.36
64967;BME280;51710;38.732;-121.358;2023-06-19T11:55:48;100550.13;;;15.02;56.21
64967;BME280;51710;38.732;-121.358;2023-06-19T11:58:14;100560.84;;;15.02;56.06
64967;BME280;51710;38.732;-121.358;2023-06-19T12:00:42;100564.72;;;15.00;55.82
64967;BME280;51710;38.732;-121.358;2023-06-19T12:03:09;100568.38;;;14.92;56.21
64967;BME280;51710;38.732;-121.358;2023-06-19T12:05:36;100564.41;;;14.88;56.22
64967;BME280;51710;38.732;-121.358;2023-06-19T12:08:03;100565.31;;;14.81;56.25
64967;BME280;51710;38.732;-121.358;2023-06-19T12:10:30;100570.63;;;14.74;56.48
64967;BME280;51710;38.732;-121.358;2023-06-19T12:12:56;100574.88;;;14.68;56.58
64967;BME280;51710;38.732;-121.358;2023-06-19T12:15:24;100573.41;;;14.66;56.92
64967;BME280;51710;38.732;-121.358;2023-06-19T12:17:51;100575.72;;;14.69;56.91
64967;BME280;51710;38.732;-121.358;2023-06-19T12:20:18;100570.63;;;14.74;56.73
64967;BME280;51710;38.732;-121.358;2023-06-19T12:22:45;100585.66;;;14.75;56.84
64967;BME280;51710;38.732;-121.358;2023-06-19T12:25:11;100592.06;;;14.74;56.67
64967;BME280;51710;38.732;-121.358;2023-06-19T12:27:40;100594.47;;;14.69;57.09
64967;BME280;51710;38.732;-121.358;2023-06-19T12:30:07;100602.72;;;14.68;57.16
64967;BME280;51710;38.732;-121.358;2023-06-19T12:32:34;100595.22;;;14.63;57.07
64967;BME280;51710;38.732;-121.358;2023-06-19T12:35:00;100593.28;;;14.57;57.67
64967;BME280;51710;38.732;-121.358;2023-06-19T12:37:26;100593.47;;;14.55;57.70